createdAt,value
2019-03-10T00:03:06.486Z,11.1
2019-03-10T00:08:07.924Z,11.1
2019-03-10T00:13:06.495Z,11.1
2019-03-10T00:18:06.507Z,11.1
2019-03-10T00:23:06.719Z,11.1
2019-03-10T00:28:06.525Z,11
2019-03-10T00:33:06.623Z,11
2019-03-10T00:38:06.513Z,11
2019-03-10T00:43:06.755Z,10.9
2019-03-10T00:48:06.513Z,10.8
2019-03-10T00:53:06.544Z,10.8
2019-03-10T00:58:06.663Z,10.8
2019-03-10T01:03:06.492Z,10.8
2019-03-10T01:08:06.698Z,10.7
2019-03-10T01:13:06.530Z,10.7
2019-03-10T01:18:06.543Z,10.6
2019-03-10T01:23:06.718Z,10.6
2019-03-10T01:28:06.753Z,10.5
2019-03-10T01:33:06.674Z,10.4
2019-03-10T01:38:06.553Z,10.4
2019-03-10T01:43:06.754Z,10.3
2019-03-10T01:48:06.555Z,10.4
2019-03-10T01:53:06.654Z,10.3
2019-03-10T01:58:06.551Z,10.3
2019-03-10T02:03:06.795Z,10.3
2019-03-10T02:08:06.685Z,10.2
2019-03-10T02:13:06.772Z,10.2
2019-03-10T02:18:06.790Z,10.1
2019-03-10T02:23:06.573Z,10
2019-03-10T02:28:06.750Z,10
2019-03-10T02:33:06.793Z,9.9
2019-03-10T02:38:06.829Z,9.8
2019-03-10T02:43:06.754Z,9.7
2019-03-10T02:48:06.795Z,9.7
2019-03-10T02:53:06.698Z,9.6
2019-03-10T02:58:06.748Z,9.6
2019-03-10T03:03:06.794Z,9.5
2019-03-10T03:08:06.598Z,9.4
2019-03-10T03:13:06.752Z,9.3
2019-03-10T03:18:06.802Z,9.3
2019-03-10T03:23:06.830Z,9.2
2019-03-10T03:28:06.766Z,9.2
2019-03-10T03:33:06.639Z,9.2
2019-03-10T03:38:06.827Z,9.2
2019-03-10T03:43:06.758Z,9.2
2019-03-10T03:48:06.626Z,9.2
2019-03-10T03:53:06.831Z,9.2
2019-03-10T03:58:06.612Z,9.2
2019-03-10T04:03:06.794Z,9.1
2019-03-10T04:08:06.869Z,9.1
2019-03-10T04:13:06.626Z,9
2019-03-10T04:18:06.790Z,9
2019-03-10T04:23:06.756Z,9
2019-03-10T04:28:06.632Z,9
2019-03-10T04:33:06.791Z,9.1
2019-03-10T04:38:06.832Z,9.1
2019-03-10T04:43:06.883Z,9.1
2019-03-10T04:48:06.799Z,9.2
2019-03-10T04:53:06.832Z,9.2
2019-03-10T04:58:06.869Z,9.2
2019-03-10T05:03:06.763Z,9.2
2019-03-10T05:08:06.833Z,9.2
2019-03-10T05:13:06.665Z,9.3
2019-03-10T05:18:06.675Z,9.4
2019-03-10T05:23:06.792Z,9.6
2019-03-10T05:28:06.871Z,9.8
2019-03-10T05:33:06.681Z,10
2019-03-10T05:38:06.679Z,10
2019-03-10T05:43:06.865Z,10.1
2019-03-10T05:48:06.919Z,10
2019-03-10T05:53:06.777Z,10
2019-03-10T05:58:06.690Z,9.9
2019-03-10T06:03:06.943Z,9.9
2019-03-10T06:08:06.699Z,9.9
2019-03-10T06:13:06.860Z,9.9
2019-03-10T06:18:13.320Z,9.9
2019-03-10T06:23:06.828Z,9.9
2019-03-10T06:28:06.693Z,9.8
2019-03-10T06:33:06.917Z,9.8
2019-03-10T06:38:06.823Z,9.8
2019-03-10T06:43:06.702Z,9.7
2019-03-10T06:48:06.914Z,9.7
2019-03-10T06:53:06.729Z,9.7
2019-03-10T06:58:06.736Z,9.6
2019-03-10T07:03:06.828Z,9.7
2019-03-10T07:08:06.715Z,9.7
2019-03-10T07:13:06.724Z,9.7
2019-03-10T07:18:06.898Z,9.7
2019-03-10T07:23:06.727Z,9.7
2019-03-10T07:28:06.758Z,9.7
2019-03-10T07:33:06.738Z,9.7
2019-03-10T07:38:06.746Z,9.6
2019-03-10T07:43:06.744Z,9.6
2019-03-10T07:48:06.767Z,9.5
2019-03-10T07:53:06.765Z,9.4
2019-03-10T07:58:06.756Z,9.4
2019-03-10T08:03:06.774Z,9.3
2019-03-10T08:08:06.756Z,9.3
2019-03-10T08:13:07.716Z,9.3
2019-03-10T08:18:06.716Z,9.3
2019-03-10T08:23:06.753Z,9.3
2019-03-10T08:28:06.766Z,9.4
2019-03-10T08:33:06.776Z,9.4
2019-03-10T08:38:06.781Z,9.4
2019-03-10T08:43:06.782Z,9.4
2019-03-10T08:48:07.497Z,9.4
2019-03-10T08:53:06.802Z,9.4
2019-03-10T08:58:06.767Z,9.4
2019-03-10T09:03:06.778Z,9.4
2019-03-10T09:08:06.796Z,9.4
2019-03-10T09:13:06.818Z,9.4
2019-03-10T09:18:06.797Z,9.4
2019-03-10T09:23:06.799Z,9.2
2019-03-10T09:28:06.824Z,9.2
2019-03-10T09:33:06.802Z,9.1
2019-03-10T09:38:06.798Z,9.1
2019-03-10T09:43:06.857Z,9.1
2019-03-10T09:48:06.838Z,9.1
2019-03-10T09:53:06.812Z,9.1
2019-03-10T09:58:09.801Z,9.1
2019-03-10T10:03:06.847Z,9.1
2019-03-10T10:08:06.802Z,9
2019-03-10T10:13:06.827Z,9.1
2019-03-10T10:18:06.807Z,9.1
2019-03-10T10:23:06.890Z,9.1
2019-03-10T10:28:06.834Z,9.1
2019-03-10T10:33:06.823Z,9.2
2019-03-10T10:38:17.856Z,9.1
2019-03-10T10:43:06.842Z,9.1
2019-03-10T10:48:06.885Z,9.1
2019-03-10T10:53:06.854Z,9.1
2019-03-10T10:58:06.948Z,9.1
2019-03-10T11:03:12.138Z,9.1
2019-03-10T11:08:06.844Z,9.2
2019-03-10T11:13:06.863Z,9.2
2019-03-10T11:18:09.578Z,9.2
2019-03-10T11:23:07.040Z,9.2
2019-03-10T11:28:06.842Z,9.3
2019-03-10T11:33:06.887Z,9.3
2019-03-10T11:38:06.868Z,9.4
2019-03-10T11:43:07.125Z,9.6
2019-03-10T11:48:06.952Z,9.8
2019-03-10T11:53:06.887Z,9.9
2019-03-10T11:58:06.880Z,10
2019-03-10T12:03:07.890Z,10.2
2019-03-10T12:08:06.883Z,10.3
2019-03-10T12:13:06.935Z,10.4
2019-03-10T12:18:06.908Z,10.5
2019-03-10T12:23:06.931Z,10.5
2019-03-10T12:28:07.037Z,10.6
2019-03-10T12:33:06.902Z,10.6
2019-03-10T12:38:07.002Z,10.7
2019-03-10T12:43:07.910Z,10.7
2019-03-10T12:48:06.996Z,10.7
2019-03-10T12:53:06.924Z,10.7
2019-03-10T12:58:06.935Z,10.7
2019-03-10T13:03:06.943Z,10.7
2019-03-10T13:08:06.972Z,10.7
2019-03-10T13:13:06.893Z,10.7
2019-03-10T13:18:06.937Z,10.7
2019-03-10T13:23:06.994Z,10.7
2019-03-10T13:28:06.936Z,10.7
2019-03-10T13:33:06.952Z,10.7
2019-03-10T13:38:06.957Z,10.8
2019-03-10T13:43:06.957Z,10.8
2019-03-10T13:48:06.981Z,10.9
2019-03-10T13:53:06.920Z,11
2019-03-10T13:58:06.957Z,11.2
2019-03-10T14:03:06.965Z,11.5
2019-03-10T14:08:06.987Z,12
2019-03-10T14:13:06.959Z,12.1
2019-03-10T14:18:06.977Z,12.3
2019-03-10T14:23:06.967Z,12.5
2019-03-10T14:28:06.980Z,12.7
2019-03-10T14:33:06.961Z,12.8
2019-03-10T14:38:07.017Z,13
2019-03-10T14:43:06.988Z,13.2
2019-03-10T14:48:06.975Z,13.4
2019-03-10T14:53:07.032Z,13.4
2019-03-10T14:58:07.010Z,13.4
2019-03-10T15:03:06.962Z,13.4
2019-03-10T15:08:06.980Z,13.4
2019-03-10T15:13:06.983Z,13.4
2019-03-10T15:18:07.029Z,13.5
2019-03-10T15:23:07.193Z,13.5
2019-03-10T15:28:06.952Z,13.5
2019-03-10T15:33:07.020Z,13.5
2019-03-10T15:38:07.083Z,13.4
2019-03-10T15:43:07.023Z,13.3
2019-03-10T15:48:07.040Z,13.4
2019-03-10T15:53:07.030Z,13.4
2019-03-10T15:58:07.029Z,13.4
2019-03-10T16:03:07.002Z,13.4
2019-03-10T16:08:07.066Z,13.5
2019-03-10T16:13:07.026Z,13.5
2019-03-10T16:18:07.026Z,13.5
2019-03-10T16:23:07.024Z,13.5
2019-03-10T16:28:07.246Z,13.5
2019-03-10T16:33:07.034Z,13.5
2019-03-10T16:38:07.052Z,13.4
2019-03-10T16:43:07.024Z,13.5
2019-03-10T16:48:07.065Z,13.6
2019-03-10T16:53:07.043Z,13.7
2019-03-10T16:58:07.357Z,13.9
2019-03-10T17:03:07.027Z,13.3
2019-03-10T17:08:07.065Z,12.7
2019-03-10T17:13:08.117Z,12.4
2019-03-10T17:18:07.065Z,12.3
2019-03-10T17:23:07.055Z,12.2
2019-03-10T17:28:07.076Z,12.1
2019-03-10T17:33:07.156Z,12.1
2019-03-10T17:38:08.326Z,12.1
2019-03-10T17:43:08.037Z,12
2019-03-10T17:48:07.128Z,11.8
2019-03-10T17:53:10.079Z,11.8
2019-03-10T17:58:07.120Z,11.7
2019-03-10T18:03:07.347Z,11.7
2019-03-10T18:08:07.133Z,11.7
2019-03-10T18:13:07.145Z,11.8
2019-03-10T18:18:07.208Z,11.9
2019-03-10T18:23:07.102Z,12
2019-03-10T18:28:07.082Z,11.8
2019-03-10T18:33:07.119Z,11.6
2019-03-10T18:38:07.111Z,11.3
2019-03-10T18:43:07.117Z,11.2
2019-03-10T18:48:07.116Z,11.3
2019-03-10T18:53:07.124Z,11.4
2019-03-10T18:58:07.136Z,11.3
2019-03-10T19:03:07.137Z,11.3
2019-03-10T19:08:07.267Z,11.3
2019-03-10T19:13:07.189Z,11.3
2019-03-10T19:18:07.151Z,11.2
2019-03-10T19:23:07.156Z,11.1
2019-03-10T19:28:07.240Z,11
2019-03-10T19:33:07.184Z,10.9
2019-03-10T19:38:07.164Z,10.8
2019-03-10T19:43:07.172Z,10.9
2019-03-10T19:48:07.198Z,10.9
2019-03-10T19:53:07.186Z,10.9
2019-03-10T19:58:07.206Z,10.9
2019-03-10T20:03:09.571Z,11.1
2019-03-10T20:08:07.272Z,11
2019-03-10T20:13:07.427Z,11.2
2019-03-10T20:18:07.226Z,11.2
2019-03-10T20:23:07.318Z,11.3
2019-03-10T20:28:09.167Z,11.3
2019-03-10T20:33:07.206Z,11.3
2019-03-10T20:38:07.375Z,11.3
2019-03-10T20:43:07.181Z,11.2
2019-03-10T20:48:07.199Z,11.2
2019-03-10T20:53:07.193Z,11.2
2019-03-10T20:58:07.178Z,11.3
2019-03-10T21:03:07.215Z,11.1
2019-03-10T21:08:07.192Z,11
2019-03-10T21:13:09.926Z,10.9
2019-03-10T21:18:07.207Z,10.8
2019-03-10T21:23:07.198Z,10.8
2019-03-10T21:28:07.215Z,10.7
2019-03-10T21:33:07.201Z,10.6
2019-03-10T21:38:07.143Z,10.5
2019-03-10T21:43:07.355Z,10.6
2019-03-10T21:48:07.396Z,10.4
2019-03-10T21:53:07.294Z,10.4
2019-03-10T21:58:07.348Z,10.3
2019-03-10T22:03:07.209Z,10.2
2019-03-10T22:08:07.154Z,10.3
2019-03-10T22:13:07.212Z,10.3
2019-03-10T22:18:07.227Z,10.3
2019-03-10T22:23:07.212Z,10.4
2019-03-10T22:28:07.212Z,10.4
2019-03-10T22:33:07.215Z,10.5
2019-03-10T22:38:07.214Z,10.5
2019-03-10T22:43:07.359Z,9.8
2019-03-10T22:48:07.398Z,9.4
2019-03-10T22:53:07.436Z,9.1
2019-03-10T22:58:07.362Z,8.7
2019-03-10T23:03:07.387Z,8.2
2019-03-10T23:08:07.436Z,7.9
2019-03-10T23:13:07.229Z,7.6
2019-03-10T23:18:07.390Z,7.5
2019-03-10T23:23:07.433Z,7.4
2019-03-10T23:28:07.355Z,7.4
2019-03-10T23:33:07.408Z,7.3
2019-03-10T23:38:07.256Z,7.4
2019-03-10T23:43:07.470Z,7.5
2019-03-10T23:48:07.406Z,7.5
2019-03-10T23:53:07.259Z,7.5
2019-03-10T23:58:07.479Z,7.4
